Terminal Aerodrome Forecast
Issued by NWS

Home | Current Version | Previous Version | Text Only | Print | Product List | Glossary On
Versions: 1 2 3 4 5 6 7 8 9 10 11 12 13 14 15 16 17 18 19 20 21 22 23
000
FTUS41 KBGM 172000 AAA
TAFITH
TAF AMD
KITH 172047Z 1721/1818 30010KT 3SM -SHSN OVC008
     FM172300 28012KT 3SM -SHSN OVC012
     FM180400 29012KT P6SM SCT008 OVC012
     FM181300 29015KT P6SM OVC025=

USA.gov is the U.S. government's official web portal to all federal, state and local government web resources and services.